SLEI weather

Espino Airport
Cordillera, Santa Cruz Department, Bolivia

Public forecast

Using degrees Celsius for public forecast. Weather courtesy of forecast.io.

METAR (pilot weather report)

Report is more than 2 hours old.

Closest report is Camiri Airport, 46.1 nm (85.4 km) SSW. Retrieved 2019/03/23 23:00 UTC (6 hours ago):

SLCA 232300Z 00000KT 9999 OVC033 22/21 Q1017

TAF (pilot weather forecast)

Forecast is more than 12 hours old.

Closest forecast is El Trompillo Airport, 89.4 nm (165.5 km) N. Retrieved 2019/03/23 12:10 UTC (17 hours ago):

TAF SLET 230950Z 2312/2412 18010KT 9999 SCT020 BKN070 TX31/2320Z TN21 /2411Z TEMPO 2321/2400 VRB02KT SCT023 BECMG 2406/2409 19010KT BKN070